Alston, United Kingdom
Current Conditions -  °F | °C
As of 8:50 AM on Saturday 25 Oct 2014 (Local Time) from EGOM Reporting Station
Broken Clouds Broken Clouds  
Wind Chill: 41°   Ceiling: 4600
Heat Index: 48°   Visibility: 6mi
Dew Point: 46°   Wind: 23mph
Humidity: 93%   Direction: 230°SW
Pressure: 29.77"   Gusts: NA
Location:  54.81°N, 2.44°W
Report Text: EGOM 250750Z AUTO 23020KT 9999 FEW007/// SCT014/// BKN046/// 09/08 Q1008 RERA
Loading
Personal Weather Stations






























Interactive Weather Map
Tropical Storm Tracking
New forecast layout! Learn more

10-Day Weather Forecast

Advertisements
Track Severe Weather on mobile